Burton City, Ohio
Current Conditions -  °F | °C
As of 8:42 PM on Thursday 27 Nov 2014 (Local Time) from KBJJ Reporting Station
Light Snow Light Snow  
Wind Chill: 19°   Ceiling: 1300
Heat Index: 29°   Visibility: 3mi
Dew Point: 26°   Wind: 12mph
Humidity: 89%   Direction: 260°W
Pressure: 30.22"   Gusts: NA
Location:  40.8369°N, 81.7632°W
Report Text: KBJJ 280142Z AUTO 26010KT 3SM -SN BR BKN013 BKN021 OVC032 M02/M03 A3022 RMK AO2 SNE11B26 P0000 T10171033 TSNO
Loading
Personal Weather Stations






























Interactive Weather Map New forecast layout! Learn more

10-Day Weather Forecast

Advertisements
Track Severe Weather on mobile